sensor_id;sensor_type;location;lat;lon;timestamp;pressure;altitude;pressure_sealevel;temperature;humidity
69911;BME280;63555;49.920;17.868;2023-02-14T00:00:34;100555.97;;;2.66;83.44
69911;BME280;63555;49.920;17.868;2023-02-14T00:05:34;100557.63;;;2.71;83.51
69911;BME280;63555;49.920;17.868;2023-02-14T00:10:35;100550.59;;;2.78;82.76
69911;BME280;63555;49.920;17.868;2023-02-14T00:15:35;100548.78;;;2.83;83.36
69911;BME280;63555;49.920;17.868;2023-02-14T00:20:35;100555.72;;;2.84;83.42
69911;BME280;63555;49.920;17.868;2023-02-14T00:25:36;100542.63;;;2.87;83.14
69911;BME280;63555;49.920;17.868;2023-02-14T00:30:36;100543.47;;;2.89;83.25
69911;BME280;63555;49.920;17.868;2023-02-14T00:35:37;100544.31;;;2.91;82.89
69911;BME280;63555;49.920;17.868;2023-02-14T00:40:37;100543.41;;;2.92;83.42
69911;BME280;63555;49.920;17.868;2023-02-14T00:45:38;100541.66;;;2.94;83.77
69911;BME280;63555;49.920;17.868;2023-02-14T00:50:38;100537.28;;;2.96;82.97
69911;BME280;63555;49.920;17.868;2023-02-14T00:55:38;100533.75;;;2.99;83.55
69911;BME280;63555;49.920;17.868;2023-02-14T01:00:39;100523.34;;;2.99;83.86
69911;BME280;63555;49.920;17.868;2023-02-14T01:05:39;100530.25;;;3.01;83.12
69911;BME280;63555;49.920;17.868;2023-02-14T01:10:40;100531.06;;;3.03;83.79
69911;BME280;63555;49.920;17.868;2023-02-14T01:15:45;100534.50;;;3.07;83.14
69911;BME280;63555;49.920;17.868;2023-02-14T01:20:46;100535.34;;;3.07;83.87
69911;BME280;63555;49.920;17.868;2023-02-14T01:25:46;100534.47;;;3.08;83.13
69911;BME280;63555;49.920;17.868;2023-02-14T01:30:47;100530.13;;;3.09;83.70
69911;BME280;63555;49.920;17.868;2023-02-14T01:35:47;100526.66;;;3.08;83.54
69911;BME280;63555;49.920;17.868;2023-02-14T01:40:47;100522.28;;;3.09;83.64
69911;BME280;63555;49.920;17.868;2023-02-14T01:45:48;100526.66;;;3.08;83.19
69911;BME280;63555;49.920;17.868;2023-02-14T01:50:49;100523.25;;;3.03;83.42
69911;BME280;63555;49.920;17.868;2023-02-14T01:55:59;100512.03;;;3.00;83.50
69911;BME280;63555;49.920;17.868;2023-02-14T02:01:02;100523.28;;;3.02;83.87
69911;BME280;63555;49.920;17.868;2023-02-14T02:06:19;100518.06;;;3.02;83.09
69911;BME280;63555;49.920;17.868;2023-02-14T02:11:21;100508.56;;;2.99;83.54
69911;BME280;63555;49.920;17.868;2023-02-14T02:37:01;100502.56;;;2.94;83.89
69911;BME280;63555;49.920;17.868;2023-02-14T02:47:52;100495.69;;;2.90;83.90
69911;BME280;63555;49.920;17.868;2023-02-14T02:53:04;100496.53;;;2.91;84.13
69911;BME280;63555;49.920;17.868;2023-02-14T02:58:06;100490.47;;;2.90;83.86
69911;BME280;63555;49.920;17.868;2023-02-14T03:03:07;100499.19;;;2.89;84.17
69911;BME280;63555;49.920;17.868;2023-02-14T03:08:26;100499.22;;;2.86;83.85
69911;BME280;63555;49.920;17.868;2023-02-14T03:13:36;100505.28;;;2.86;83.75
69911;BME280;63555;49.920;17.868;2023-02-14T03:24:50;100506.22;;;2.82;83.58
69911;BME280;63555;49.920;17.868;2023-02-14T03:30:12;100512.38;;;2.78;83.63
69911;BME280;63555;49.920;17.868;2023-02-14T03:40:27;100512.41;;;2.77;84.25
69911;BME280;63555;49.920;17.868;2023-02-14T03:45:37;100517.59;;;2.77;83.48
69911;BME280;63555;49.920;17.868;2023-02-14T03:50:41;100510.69;;;2.76;84.01
69911;BME280;63555;49.920;17.868;2023-02-14T03:55:48;100510.66;;;2.77;84.24
69911;BME280;63555;49.920;17.868;2023-02-14T04:00:58;100507.22;;;2.75;83.51
69911;BME280;63555;49.920;17.868;2023-02-14T04:05:59;100512.44;;;2.74;83.87
69911;BME280;63555;49.920;17.868;2023-02-14T04:11:01;100508.16;;;2.71;83.65
69911;BME280;63555;49.920;17.868;2023-02-14T04:16:03;100513.41;;;2.68;83.62
69911;BME280;63555;49.920;17.868;2023-02-14T04:21:04;100505.63;;;2.65;83.65
69911;BME280;63555;49.920;17.868;2023-02-14T04:26:04;100496.09;;;2.64;84.24
69911;BME280;63555;49.920;17.868;2023-02-14T04:31:05;100502.19;;;2.63;83.83
69911;BME280;63555;49.920;17.868;2023-02-14T04:36:06;100497.00;;;2.62;84.43
69911;BME280;63555;49.920;17.868;2023-02-14T04:41:06;100505.72;;;2.61;84.06
69911;BME280;63555;49.920;17.868;2023-02-14T04:46:06;100510.06;;;2.60;83.57
69911;BME280;63555;49.920;17.868;2023-02-14T04:51:08;100512.66;;;2.59;83.79
69911;BME280;63555;49.920;17.868;2023-02-14T04:56:08;100518.78;;;2.54;83.96
69911;BME280;63555;49.920;17.868;2023-02-14T05:01:09;100514.47;;;2.53;84.54
69911;BME280;63555;49.920;17.868;2023-02-14T05:06:09;100512.72;;;2.54;84.57
69911;BME280;63555;49.920;17.868;2023-02-14T05:11:09;100520.53;;;2.54;83.84
69911;BME280;63555;49.920;17.868;2023-02-14T05:16:10;100515.34;;;2.52;83.72
69911;BME280;63555;49.920;17.868;2023-02-14T05:21:10;100521.47;;;2.50;84.46
69911;BME280;63555;49.920;17.868;2023-02-14T05:26:11;100540.56;;;2.49;84.52
69911;BME280;63555;49.920;17.868;2023-02-14T05:31:11;100540.56;;;2.49;84.12
69911;BME280;63555;49.920;17.868;2023-02-14T05:36:11;100532.78;;;2.47;84.45
69911;BME280;63555;49.920;17.868;2023-02-14T05:41:12;100547.59;;;2.44;84.53
69911;BME280;63555;49.920;17.868;2023-02-14T05:46:12;100546.75;;;2.42;83.98
69911;BME280;63555;49.920;17.868;2023-02-14T05:51:13;100547.63;;;2.41;83.70
69911;BME280;63555;49.920;17.868;2023-02-14T05:56:13;100555.41;;;2.42;84.42
69911;BME280;63555;49.920;17.868;2023-02-14T06:01:13;100564.97;;;2.42;84.00
69911;BME280;63555;49.920;17.868;2023-02-14T06:06:14;100571.91;;;2.43;84.42
69911;BME280;63555;49.920;17.868;2023-02-14T06:11:14;100571.06;;;2.41;83.48
69911;BME280;63555;49.920;17.868;2023-02-14T06:16:15;100573.69;;;2.39;84.25
69911;BME280;63555;49.920;17.868;2023-02-14T06:21:15;100584.09;;;2.39;83.36
69911;BME280;63555;49.920;17.868;2023-02-14T06:26:15;100600.59;;;2.38;84.10
69911;BME280;63555;49.920;17.868;2023-02-14T06:31:16;100613.63;;;2.38;83.83
69911;BME280;63555;49.920;17.868;2023-02-14T06:36:17;100605.81;;;2.37;83.03
69911;BME280;63555;49.920;17.868;2023-02-14T06:41:18;100600.63;;;2.37;83.35
69911;BME280;63555;49.920;17.868;2023-02-14T06:46:19;100606.66;;;2.39;83.42
69911;BME280;63555;49.920;17.868;2023-02-14T06:51:19;100605.75;;;2.41;83.54
69911;BME280;63555;49.920;17.868;2023-02-14T06:56:19;100604.91;;;2.41;82.68
69911;BME280;63555;49.920;17.868;2023-02-14T07:01:20;100604.94;;;2.39;82.65
69911;BME280;63555;49.920;17.868;2023-02-14T07:06:20;100598.84;;;2.40;82.37
69911;BME280;63555;49.920;17.868;2023-02-14T07:11:20;100598.84;;;2.40;82.54
69911;BME280;63555;49.920;17.868;2023-02-14T07:16:21;100601.44;;;2.40;82.66
69911;BME280;63555;49.920;17.868;2023-02-14T07:21:21;100602.25;;;2.44;82.00
69911;BME280;63555;49.920;17.868;2023-02-14T07:26:22;100606.59;;;2.45;82.71
69911;BME280;63555;49.920;17.868;2023-02-14T07:31:22;100594.38;;;2.48;82.24
69911;BME280;63555;49.920;17.868;2023-02-14T07:36:23;100596.06;;;2.54;82.39
69911;BME280;63555;49.920;17.868;2023-02-14T07:41:23;100607.25;;;2.59;81.93
69911;BME280;63555;49.920;17.868;2023-02-14T07:46:23;100600.25;;;2.66;81.94
69911;BME280;63555;49.920;17.868;2023-02-14T07:51:24;100607.16;;;2.70;82.01
69911;BME280;63555;49.920;17.868;2023-02-14T07:56:24;100604.50;;;2.73;81.28
69911;BME280;63555;49.920;17.868;2023-02-14T08:01:24;100617.44;;;2.79;81.95
69911;BME280;63555;49.920;17.868;2023-02-14T08:06:25;100609.59;;;2.80;81.12
69911;BME280;63555;49.920;17.868;2023-02-14T08:11:26;100608.63;;;2.87;81.50
69911;BME280;63555;49.920;17.868;2023-02-14T08:16:46;100608.44;;;3.00;81.93
69911;BME280;63555;49.920;17.868;2023-02-14T08:21:46;100600.47;;;3.10;81.60
69911;BME280;63555;49.920;17.868;2023-02-14T08:26:46;100597.69;;;3.19;81.12
69911;BME280;63555;49.920;17.868;2023-02-14T08:31:47;100610.63;;;3.27;81.32
69911;BME280;63555;49.920;17.868;2023-02-14T08:36:47;100610.47;;;3.36;81.00
69911;BME280;63555;49.920;17.868;2023-02-14T08:41:48;100615.53;;;3.44;81.01
69911;BME280;63555;49.920;17.868;2023-02-14T08:46:48;100612.88;;;3.50;80.73
69911;BME280;63555;49.920;17.868;2023-02-14T08:51:49;100614.50;;;3.56;80.32
69911;BME280;63555;49.920;17.868;2023-02-14T08:56:49;100617.94;;;3.58;80.06
69911;BME280;63555;49.920;17.868;2023-02-14T09:01:49;100630.22;;;3.53;80.25
69911;BME280;63555;49.920;17.868;2023-02-14T09:06:50;100626.69;;;3.55;80.00
69911;BME280;63555;49.920;17.868;2023-02-14T09:11:50;100622.31;;;3.57;80.05
69911;BME280;63555;49.920;17.868;2023-02-14T09:16:50;100619.56;;;3.65;80.30
69911;BME280;63555;49.920;17.868;2023-02-14T09:21:51;100619.44;;;3.71;79.61
69911;BME280;63555;49.920;17.868;2023-02-14T09:26:53;100620.28;;;3.73;79.62
69911;BME280;63555;49.920;17.868;2023-02-14T09:31:55;100611.56;;;3.74;79.56
69911;BME280;63555;49.920;17.868;2023-02-14T09:36:55;100615.84;;;3.78;79.38
69911;BME280;63555;49.920;17.868;2023-02-14T09:42:22;100626.97;;;3.88;79.72
69911;BME280;63555;49.920;17.868;2023-02-14T09:48:05;100617.22;;;3.97;78.73
69911;BME280;63555;49.920;17.868;2023-02-14T09:53:26;100616.13;;;4.09;78.64
69911;BME280;63555;49.920;17.868;2023-02-14T09:58:35;100625.56;;;4.16;78.11
69911;BME280;63555;49.920;17.868;2023-02-14T10:09:10;100616.59;;;4.29;78.04
69911;BME280;63555;49.920;17.868;2023-02-14T10:14:18;100614.69;;;4.39;77.52
69911;BME280;63555;49.920;17.868;2023-02-14T10:19:27;100612.63;;;4.53;77.49
69911;BME280;63555;49.920;17.868;2023-02-14T10:29:43;100602.59;;;4.73;76.77
69911;BME280;63555;49.920;17.868;2023-02-14T10:34:49;100591.88;;;4.86;76.71
69911;BME280;63555;49.920;17.868;2023-02-14T10:39:58;100595.66;;;5.09;76.15
69911;BME280;63555;49.920;17.868;2023-02-14T10:45:22;100591.06;;;5.19;75.71
69911;BME280;63555;49.920;17.868;2023-02-14T10:50:40;100586.59;;;5.26;75.93
69911;BME280;63555;49.920;17.868;2023-02-14T10:55:52;100596.56;;;5.46;75.73
69911;BME280;63555;49.920;17.868;2023-02-14T11:01:13;100583.84;;;5.64;75.35
69911;BME280;63555;49.920;17.868;2023-02-14T11:06:14;100572.72;;;5.89;74.35
69911;BME280;63555;49.920;17.868;2023-02-14T11:11:32;100560.03;;;6.07;74.48
69911;BME280;63555;49.920;17.868;2023-02-14T11:16:36;100564.59;;;6.30;73.44
69911;BME280;63555;49.920;17.868;2023-02-14T11:21:39;100556.88;;;6.55;73.04
69911;BME280;63555;49.920;17.868;2023-02-14T11:26:44;100562.41;;;6.74;73.12
69911;BME280;63555;49.920;17.868;2023-02-14T11:31:46;100553.16;;;6.90;72.05
69911;BME280;63555;49.920;17.868;2023-02-14T11:36:46;100549.19;;;7.05;72.19
69911;BME280;63555;49.920;17.868;2023-02-14T11:41:51;100546.03;;;7.22;71.44
69911;BME280;63555;49.920;17.868;2023-02-14T11:46:53;100550.88;;;7.34;71.50
69911;BME280;63555;49.920;17.868;2023-02-14T11:51:54;100543.94;;;7.31;71.29
69911;BME280;63555;49.920;17.868;2023-02-14T11:57:01;100547.00;;;7.44;70.99
69911;BME280;63555;49.920;17.868;2023-02-14T12:02:45;100538.72;;;7.56;70.39
69911;BME280;63555;49.920;17.868;2023-02-14T12:07:48;100535.44;;;7.50;69.99
69911;BME280;63555;49.920;17.868;2023-02-14T12:23:25;100516.75;;;7.59;69.28
69911;BME280;63555;49.920;17.868;2023-02-14T12:28:34;100512.47;;;7.56;70.11
69911;BME280;63555;49.920;17.868;2023-02-14T12:33:38;100511.16;;;7.68;69.23
69911;BME280;63555;49.920;17.868;2023-02-14T13:00:33;100491.16;;;7.41;68.98
69911;BME280;63555;49.920;17.868;2023-02-14T13:16:42;100483.38;;;7.13;68.65
69911;BME280;63555;49.920;17.868;2023-02-14T13:21:45;100485.94;;;7.14;68.51
69911;BME280;63555;49.920;17.868;2023-02-14T13:26:51;100486.69;;;6.91;68.33
69911;BME280;63555;49.920;17.868;2023-02-14T13:31:57;100486.78;;;6.62;68.80
69911;BME280;63555;49.920;17.868;2023-02-14T13:37:02;100485.00;;;6.34;69.08
69911;BME280;63555;49.920;17.868;2023-02-14T13:42:05;100485.19;;;6.28;69.12
69911;BME280;63555;49.920;17.868;2023-02-14T13:47:14;100487.81;;;6.28;68.70
69911;BME280;63555;49.920;17.868;2023-02-14T13:52:44;100487.97;;;6.24;69.03
69911;BME280;63555;49.920;17.868;2023-02-14T13:57:46;100481.47;;;6.06;69.17
69911;BME280;63555;49.920;17.868;2023-02-14T14:02:59;100485.19;;;5.99;69.36
69911;BME280;63555;49.920;17.868;2023-02-14T14:18:42;100479.72;;;5.75;69.45
69911;BME280;63555;49.920;17.868;2023-02-14T14:23:43;100480.66;;;5.73;69.71
69911;BME280;63555;49.920;17.868;2023-02-14T14:28:44;100474.56;;;5.72;69.41
69911;BME280;63555;49.920;17.868;2023-02-14T14:33:45;100482.50;;;5.69;69.93
69911;BME280;63555;49.920;17.868;2023-02-14T14:38:50;100477.41;;;5.65;69.44
69911;BME280;63555;49.920;17.868;2023-02-14T14:43:53;100479.25;;;5.61;69.69
69911;BME280;63555;49.920;17.868;2023-02-14T14:48:55;100479.41;;;5.55;70.27
69911;BME280;63555;49.920;17.868;2023-02-14T14:53:59;100475.22;;;5.50;70.15
69911;BME280;63555;49.920;17.868;2023-02-14T15:04:29;100479.16;;;5.33;69.92
69911;BME280;63555;49.920;17.868;2023-02-14T15:09:32;100481.19;;;5.22;70.10
69911;BME280;63555;49.920;17.868;2023-02-14T15:14:39;100481.47;;;5.10;70.68
69911;BME280;63555;49.920;17.868;2023-02-14T15:19:42;100481.72;;;5.01;70.48
69911;BME280;63555;49.920;17.868;2023-02-14T15:24:43;100482.19;;;4.83;70.34
69911;BME280;63555;49.920;17.868;2023-02-14T15:30:03;100487.88;;;4.63;70.81
69911;BME280;63555;49.920;17.868;2023-02-14T15:35:05;100487.34;;;4.48;71.13
69911;BME280;63555;49.920;17.868;2023-02-14T15:40:06;100480.72;;;4.34;71.54
69911;BME280;63555;49.920;17.868;2023-02-14T15:50:20;100480.22;;;4.16;71.67
69911;BME280;63555;49.920;17.868;2023-02-14T15:55:25;100483.00;;;4.09;71.85
69911;BME280;63555;49.920;17.868;2023-02-14T16:00:26;100485.69;;;4.04;72.02
69911;BME280;63555;49.920;17.868;2023-02-14T16:05:26;100482.44;;;3.95;72.45
69911;BME280;63555;49.920;17.868;2023-02-14T16:10:29;100487.75;;;3.90;71.95
69911;BME280;63555;49.920;17.868;2023-02-14T16:15:38;100493.19;;;3.79;72.38
69911;BME280;63555;49.920;17.868;2023-02-14T16:20:43;100487.19;;;3.74;72.56
69911;BME280;63555;49.920;17.868;2023-02-14T16:25:46;100490.75;;;3.70;72.79
69911;BME280;63555;49.920;17.868;2023-02-14T16:30:52;100492.56;;;3.67;73.10
69911;BME280;63555;49.920;17.868;2023-02-14T16:35:57;100484.94;;;3.58;72.84
69911;BME280;63555;49.920;17.868;2023-02-14T16:41:01;100488.47;;;3.54;73.18
69911;BME280;63555;49.920;17.868;2023-02-14T16:46:02;100497.25;;;3.49;73.29
69911;BME280;63555;49.920;17.868;2023-02-14T16:51:02;100498.16;;;3.47;73.12
69911;BME280;63555;49.920;17.868;2023-02-14T16:56:04;100502.56;;;3.43;73.10
69911;BME280;63555;49.920;17.868;2023-02-14T17:01:04;100512.19;;;3.40;73.63
69911;BME280;63555;49.920;17.868;2023-02-14T17:06:05;100511.44;;;3.33;73.87
69911;BME280;63555;49.920;17.868;2023-02-14T17:11:08;100518.44;;;3.30;73.95
69911;BME280;63555;49.920;17.868;2023-02-14T17:16:09;100510.72;;;3.25;73.59
69911;BME280;63555;49.920;17.868;2023-02-14T17:21:10;100509.03;;;3.23;73.80
69911;BME280;63555;49.920;17.868;2023-02-14T17:26:11;100507.34;;;3.18;74.81
69911;BME280;63555;49.920;17.868;2023-02-14T17:31:13;100506.59;;;3.12;74.17
69911;BME280;63555;49.920;17.868;2023-02-14T17:36:14;100504.97;;;3.06;74.59
69911;BME280;63555;49.920;17.868;2023-02-14T17:41:19;100513.78;;;2.99;74.63
69911;BME280;63555;49.920;17.868;2023-02-14T17:46:28;100515.59;;;2.94;75.10
69911;BME280;63555;49.920;17.868;2023-02-14T17:51:29;100512.19;;;2.89;74.72
69911;BME280;63555;49.920;17.868;2023-02-14T17:56:30;100507.06;;;2.84;74.72
69911;BME280;63555;49.920;17.868;2023-02-14T18:01:30;100503.66;;;2.81;74.87
69911;BME280;63555;49.920;17.868;2023-02-14T18:06:33;100502.88;;;2.76;75.17
69911;BME280;63555;49.920;17.868;2023-02-14T18:11:34;100509.00;;;2.72;75.70
69911;BME280;63555;49.920;17.868;2023-02-14T18:16:38;100497.81;;;2.65;75.58
69911;BME280;63555;49.920;17.868;2023-02-14T18:21:38;100503.16;;;2.56;75.86
69911;BME280;63555;49.920;17.868;2023-02-14T18:26:40;100503.22;;;2.51;76.08
69911;BME280;63555;49.920;17.868;2023-02-14T18:31:42;100492.84;;;2.48;75.98
69911;BME280;63555;49.920;17.868;2023-02-14T18:36:44;100498.13;;;2.44;76.13
69911;BME280;63555;49.920;17.868;2023-02-14T18:41:44;100491.25;;;2.40;76.49
69911;BME280;63555;49.920;17.868;2023-02-14T18:46:45;100485.19;;;2.38;75.92
69911;BME280;63555;49.920;17.868;2023-02-14T18:51:45;100474.81;;;2.35;76.30
69911;BME280;63555;49.920;17.868;2023-02-14T18:56:48;100489.63;;;2.31;76.44
69911;BME280;63555;49.920;17.868;2023-02-14T19:01:48;100475.88;;;2.23;76.26
69911;BME280;63555;49.920;17.868;2023-02-14T19:06:48;100486.34;;;2.18;76.06
69911;BME280;63555;49.920;17.868;2023-02-14T19:11:49;100477.75;;;2.13;77.01
69911;BME280;63555;49.920;17.868;2023-02-14T19:16:49;100476.97;;;2.07;76.30
69911;BME280;63555;49.920;17.868;2023-02-14T19:21:52;100470.97;;;2.02;77.22
69911;BME280;63555;49.920;17.868;2023-02-14T19:26:53;100472.63;;;2.07;76.53
69911;BME280;63555;49.920;17.868;2023-02-14T19:31:55;100469.97;;;2.10;76.32
69911;BME280;63555;49.920;17.868;2023-02-14T19:36:57;100477.72;;;2.15;77.04
69911;BME280;63555;49.920;17.868;2023-02-14T19:41:59;100482.91;;;2.16;76.30
69911;BME280;63555;49.920;17.868;2023-02-14T19:46:59;100472.50;;;2.15;76.18
69911;BME280;63555;49.920;17.868;2023-02-14T19:52:00;100468.22;;;2.12;76.67
69911;BME280;63555;49.920;17.868;2023-02-14T19:57:04;100463.94;;;2.07;76.86
69911;BME280;63555;49.920;17.868;2023-02-14T20:02:05;100469.19;;;2.05;76.63
69911;BME280;63555;49.920;17.868;2023-02-14T20:07:06;100457.88;;;2.06;76.87
69911;BME280;63555;49.920;17.868;2023-02-14T20:12:06;100457.97;;;2.00;76.75
69911;BME280;63555;49.920;17.868;2023-02-14T20:17:06;100459.75;;;1.97;77.08
69911;BME280;63555;49.920;17.868;2023-02-14T20:22:07;100459.81;;;1.92;77.20
69911;BME280;63555;49.920;17.868;2023-02-14T20:27:07;100460.75;;;1.88;76.75
69911;BME280;63555;49.920;17.868;2023-02-14T20:32:08;100448.69;;;1.81;77.54
69911;BME280;63555;49.920;17.868;2023-02-14T20:37:09;100445.25;;;1.79;77.41
69911;BME280;63555;49.920;17.868;2023-02-14T20:42:10;100444.41;;;1.77;77.13
69911;BME280;63555;49.920;17.868;2023-02-14T20:47:10;100443.53;;;1.78;76.81
69911;BME280;63555;49.920;17.868;2023-02-14T20:52:11;100440.97;;;1.75;77.25
69911;BME280;63555;49.920;17.868;2023-02-14T20:57:11;100441.03;;;1.69;76.96
69911;BME280;63555;49.920;17.868;2023-02-14T21:02:12;100433.25;;;1.66;77.28
69911;BME280;63555;49.920;17.868;2023-02-14T21:07:12;100436.84;;;1.57;77.46
69911;BME280;63555;49.920;17.868;2023-02-14T21:12:12;100437.78;;;1.51;77.20
69911;BME280;63555;49.920;17.868;2023-02-14T21:17:13;100430.84;;;1.50;77.91
69911;BME280;63555;49.920;17.868;2023-02-14T21:22:13;100424.81;;;1.47;77.25
69911;BME280;63555;49.920;17.868;2023-02-14T21:27:14;100427.53;;;1.39;77.67
69911;BME280;63555;49.920;17.868;2023-02-14T21:32:15;100424.13;;;1.34;77.46
69911;BME280;63555;49.920;17.868;2023-02-14T21:37:15;100427.59;;;1.33;78.21
69911;BME280;63555;49.920;17.868;2023-02-14T21:42:15;100414.63;;;1.30;77.91
69911;BME280;63555;49.920;17.868;2023-02-14T21:47:18;100424.31;;;1.17;77.96
69911;BME280;63555;49.920;17.868;2023-02-14T21:52:19;100417.50;;;1.06;78.57
69911;BME280;63555;49.920;17.868;2023-02-14T21:57:19;100406.31;;;0.99;78.40
69911;BME280;63555;49.920;17.868;2023-02-14T22:02:20;100407.25;;;0.92;78.29
69911;BME280;63555;49.920;17.868;2023-02-14T22:07:20;100413.28;;;0.94;78.47
69911;BME280;63555;49.920;17.868;2023-02-14T22:12:20;100398.56;;;0.96;78.49
69911;BME280;63555;49.920;17.868;2023-02-14T22:17:21;100403.75;;;0.98;78.47
69911;BME280;63555;49.920;17.868;2023-02-14T22:22:21;100402.84;;;0.99;78.62
69911;BME280;63555;49.920;17.868;2023-02-14T22:27:22;100398.53;;;0.99;78.40
69911;BME280;63555;49.920;17.868;2023-02-14T22:32:22;100400.22;;;1.03;79.05
69911;BME280;63555;49.920;17.868;2023-02-14T22:37:23;100398.53;;;0.99;78.03
69911;BME280;63555;49.920;17.868;2023-02-14T22:42:23;100402.94;;;0.92;78.64
69911;BME280;63555;49.920;17.868;2023-02-14T22:47:23;100396.91;;;0.84;78.60
69911;BME280;63555;49.920;17.868;2023-02-14T22:52:24;100398.75;;;0.75;78.88
69911;BME280;63555;49.920;17.868;2023-02-14T22:57:24;100395.38;;;0.65;78.67
69911;BME280;63555;49.920;17.868;2023-02-14T23:02:24;100390.25;;;0.59;78.95
69911;BME280;63555;49.920;17.868;2023-02-14T23:07:25;100385.13;;;0.50;79.00
69911;BME280;63555;49.920;17.868;2023-02-14T23:12:26;100379.13;;;0.43;79.08
69911;BME280;63555;49.920;17.868;2023-02-14T23:17:44;100385.16;;;0.47;79.60
69911;BME280;63555;49.920;17.868;2023-02-14T23:23:03;100371.31;;;0.48;79.21
69911;BME280;63555;49.920;17.868;2023-02-14T23:28:04;100357.47;;;0.47;79.02
69911;BME280;63555;49.920;17.868;2023-02-14T23:33:04;100359.19;;;0.48;79.01
69911;BME280;63555;49.920;17.868;2023-02-14T23:38:04;100349.75;;;0.41;79.07
69911;BME280;63555;49.920;17.868;2023-02-14T23:43:04;100346.41;;;0.27;78.84
69911;BME280;63555;49.920;17.868;2023-02-14T23:48:05;100339.63;;;0.09;79.34
69911;BME280;63555;49.920;17.868;2023-02-14T23:53:05;100338.00;;;-0.06;79.38
69911;BME280;63555;49.920;17.868;2023-02-14T23:58:06;100333.78;;;-0.20;79.65
